createdAt,value
2022-08-20T00:00:42.222Z,14.50
2022-08-20T00:03:18.566Z,12.90
2022-08-20T00:05:56.953Z,13.60
2022-08-20T00:08:29.138Z,12.40
2022-08-20T00:11:01.069Z,11.70
2022-08-20T00:13:35.729Z,12.90
2022-08-20T00:16:08.055Z,13.50
2022-08-20T00:18:40.012Z,13.80
2022-08-20T00:21:18.082Z,11.40
2022-08-20T00:23:53.217Z,12.60
2022-08-20T00:26:25.396Z,14.40
2022-08-20T00:28:57.229Z,12.70
2022-08-20T00:31:29.953Z,11.90
2022-08-20T00:34:01.120Z,11.80
2022-08-20T00:36:34.148Z,11.70
2022-08-20T00:39:05.156Z,12.60
2022-08-20T00:41:36.059Z,9.50
2022-08-20T00:44:17.153Z,12.90
2022-08-20T00:46:49.134Z,12.40
2022-08-20T00:49:22.951Z,14.00
2022-08-20T00:51:58.646Z,12.40
2022-08-20T00:54:35.229Z,11.80
2022-08-20T00:59:40.199Z,9.90
2022-08-20T01:02:15.945Z,11.20
2022-08-20T01:04:50.732Z,13.40
2022-08-20T01:07:24.782Z,13.00
2022-08-20T01:09:59.184Z,13.60
2022-08-20T01:12:32.597Z,11.30
2022-08-20T01:15:06.178Z,11.10
2022-08-20T01:17:41.880Z,13.10
2022-08-20T01:20:17.932Z,13.00
2022-08-20T01:23:14.858Z,12.90
2022-08-20T01:25:49.985Z,10.80
2022-08-20T01:28:33.449Z,13.50
2022-08-20T01:31:05.206Z,11.20
2022-08-20T01:33:36.256Z,12.40
2022-08-20T01:36:08.883Z,12.70
2022-08-20T01:38:40.291Z,12.10
2022-08-20T01:41:36.487Z,10.70
2022-08-20T01:44:10.994Z,11.10
2022-08-20T01:46:51.168Z,12.10
2022-08-20T01:49:25.372Z,13.00
2022-08-20T01:51:59.629Z,11.20
2022-08-20T01:54:33.945Z,12.60
2022-08-20T01:57:11.442Z,12.30
2022-08-20T01:59:42.718Z,11.90
2022-08-20T02:02:14.822Z,11.20
2022-08-20T02:04:46.851Z,11.10
2022-08-20T02:07:22.580Z,13.30
2022-08-20T02:09:53.488Z,12.70
2022-08-20T02:12:24.449Z,12.20
2022-08-20T02:14:57.246Z,15.60
2022-08-20T02:17:28.864Z,11.70
2022-08-20T02:20:02.790Z,12.90
2022-08-20T02:22:40.779Z,12.50
2022-08-20T02:25:23.072Z,15.10
2022-08-20T02:27:55.566Z,12.00
2022-08-20T02:30:33.356Z,9.50
2022-08-20T02:33:06.970Z,12.70
2022-08-20T02:35:38.648Z,11.10
2022-08-20T02:38:10.010Z,11.90
2022-08-20T02:40:41.537Z,16.80
2022-08-20T02:43:14.606Z,11.90
2022-08-20T02:45:45.539Z,11.90
2022-08-20T02:48:21.369Z,11.40
2022-08-20T02:50:56.852Z,10.60
2022-08-20T02:53:29.344Z,10.70
2022-08-20T02:56:01.076Z,11.20
2022-08-20T02:58:32.102Z,12.30
2022-08-20T03:01:04.328Z,13.50
2022-08-20T03:03:35.804Z,12.50
2022-08-20T03:06:10.289Z,12.30
2022-08-20T03:08:41.603Z,12.90
2022-08-20T03:11:13.508Z,10.90
2022-08-20T03:13:45.120Z,11.40
2022-08-20T03:16:17.237Z,13.10
2022-08-20T03:18:52.091Z,12.00
2022-08-20T03:21:23.787Z,12.20
2022-08-20T03:23:54.874Z,10.30
2022-08-20T03:26:26.011Z,12.00
2022-08-20T03:28:56.798Z,12.90
2022-08-20T03:31:28.055Z,11.40
2022-08-20T03:33:59.337Z,12.40
2022-08-20T03:36:31.799Z,15.30
2022-08-20T03:39:05.982Z,13.10
2022-08-20T03:41:37.030Z,11.00
2022-08-20T03:44:08.203Z,15.10
2022-08-20T03:46:40.172Z,13.30
2022-08-20T03:49:11.620Z,12.10
2022-08-20T03:51:56.170Z,10.10
2022-08-20T03:54:32.191Z,13.60
2022-08-20T03:57:03.977Z,12.90
2022-08-20T03:59:44.803Z,11.50
2022-08-20T04:02:15.759Z,13.10
2022-08-20T04:04:47.134Z,12.30
2022-08-20T04:07:25.943Z,11.10
2022-08-20T04:09:58.039Z,10.90
2022-08-20T04:12:29.516Z,10.50
2022-08-20T04:15:00.803Z,17.30
2022-08-20T04:17:33.735Z,12.00
2022-08-20T04:20:08.173Z,9.60
2022-08-20T04:22:41.813Z,13.80
2022-08-20T04:25:26.194Z,12.80
2022-08-20T04:27:58.268Z,11.90
2022-08-20T04:30:30.960Z,10.70
2022-08-20T04:33:02.098Z,10.50
2022-08-20T04:35:33.332Z,9.00
2022-08-20T04:38:07.419Z,10.70
2022-08-20T04:40:58.236Z,11.20
2022-08-20T04:43:30.818Z,11.10
2022-08-20T04:46:03.733Z,14.70
2022-08-20T04:48:34.899Z,12.90
2022-08-20T04:51:06.443Z,10.40
2022-08-20T04:53:39.426Z,13.60
2022-08-20T04:56:11.426Z,11.00
2022-08-20T04:58:48.336Z,8.70
2022-08-20T05:01:19.438Z,12.00
2022-08-20T05:03:51.467Z,11.30
2022-08-20T05:06:24.803Z,12.90
2022-08-20T05:08:58.096Z,10.20
2022-08-20T05:11:34.940Z,10.00
2022-08-20T05:14:09.609Z,9.50
2022-08-20T05:16:41.806Z,9.80
2022-08-20T05:19:14.807Z,12.70
2022-08-20T05:21:45.756Z,9.30
2022-08-20T05:24:16.911Z,11.70
2022-08-20T05:26:47.829Z,12.60
2022-08-20T05:29:19.401Z,10.50
2022-08-20T05:31:50.371Z,12.30
2022-08-20T05:34:21.212Z,14.40
2022-08-20T05:36:54.079Z,9.90
2022-08-20T05:39:26.541Z,12.00
2022-08-20T05:41:59.239Z,12.20
2022-08-20T05:44:30.136Z,13.90
2022-08-20T05:47:02.115Z,12.30
2022-08-20T05:49:35.641Z,9.20
2022-08-20T05:52:07.412Z,7.50
2022-08-20T05:54:38.456Z,8.60
2022-08-20T05:57:09.400Z,8.80
2022-08-20T05:59:40.660Z,11.60
2022-08-20T06:02:32.409Z,9.60
2022-08-20T06:05:03.716Z,10.10
2022-08-20T06:07:34.699Z,8.80
2022-08-20T06:10:06.373Z,9.90
2022-08-20T06:12:37.660Z,12.30
2022-08-20T06:15:10.000Z,14.50
2022-08-20T06:17:41.349Z,12.70
2022-08-20T06:20:15.066Z,10.60
2022-08-20T06:22:47.330Z,9.80
2022-08-20T06:25:18.464Z,10.70
2022-08-20T06:27:50.427Z,9.70
2022-08-20T06:30:21.486Z,10.70
2022-08-20T06:32:52.537Z,7.90
2022-08-20T06:35:23.952Z,13.90
2022-08-20T06:37:57.488Z,7.60
2022-08-20T06:40:30.139Z,9.90
2022-08-20T06:43:01.472Z,9.80
2022-08-20T06:45:33.956Z,11.60
2022-08-20T06:48:10.232Z,12.80
2022-08-20T06:50:48.181Z,11.80
2022-08-20T06:53:20.675Z,12.50
2022-08-20T06:55:54.211Z,10.80
2022-08-20T06:58:37.744Z,21.60
2022-08-20T07:01:11.470Z,13.00
2022-08-20T07:03:54.832Z,10.80
2022-08-20T07:06:28.177Z,10.10
2022-08-20T07:08:59.232Z,12.80
2022-08-20T07:11:30.448Z,9.70
2022-08-20T07:14:03.426Z,14.20
2022-08-20T07:16:34.637Z,13.60
2022-08-20T07:19:06.049Z,12.80
2022-08-20T07:21:37.606Z,12.70
2022-08-20T07:24:09.749Z,14.10
2022-08-20T07:26:40.671Z,13.80
2022-08-20T07:29:11.591Z,16.10
2022-08-20T07:32:00.199Z,12.70
2022-08-20T07:34:31.590Z,15.50
2022-08-20T07:37:03.178Z,19.30
2022-08-20T07:39:35.690Z,14.90
2022-08-20T07:42:07.639Z,17.40
2022-08-20T07:44:39.444Z,14.90
2022-08-20T07:47:10.841Z,14.60
2022-08-20T07:49:41.988Z,17.90
2022-08-20T07:52:13.323Z,19.80
2022-08-20T07:54:44.491Z,19.70
2022-08-20T07:57:17.382Z,22.90
2022-08-20T07:59:48.855Z,19.00
2022-08-20T08:02:19.976Z,21.40
2022-08-20T08:04:53.663Z,18.40
2022-08-20T08:07:26.524Z,17.40
2022-08-20T08:09:58.807Z,22.50
2022-08-20T08:12:37.835Z,21.20
2022-08-20T08:15:14.262Z,19.20
2022-08-20T08:17:47.379Z,18.10
2022-08-20T08:20:19.308Z,18.90
2022-08-20T08:22:50.938Z,21.20
2022-08-20T08:25:22.251Z,21.40
2022-08-20T08:27:53.611Z,19.30
2022-08-20T08:30:24.491Z,20.70
2022-08-20T08:33:14.258Z,17.20
2022-08-20T08:35:46.297Z,16.80
2022-08-20T08:38:17.438Z,19.40
2022-08-20T08:40:48.448Z,20.10
2022-08-20T08:43:26.202Z,18.50
2022-08-20T08:46:06.236Z,16.80
2022-08-20T08:48:43.590Z,18.40
2022-08-20T08:51:20.879Z,26.70
2022-08-20T08:53:57.059Z,19.30
2022-08-20T08:56:31.559Z,19.60
2022-08-20T08:59:06.324Z,14.90
2022-08-20T09:01:54.879Z,17.20
2022-08-20T09:04:33.832Z,20.80
2022-08-20T09:07:11.917Z,21.70
2022-08-20T09:09:47.501Z,13.60
2022-08-20T09:12:20.857Z,16.90
2022-08-20T09:14:53.346Z,18.70
2022-08-20T09:17:25.067Z,15.20
2022-08-20T09:19:55.954Z,15.30
2022-08-20T09:22:27.075Z,19.50
2022-08-20T09:24:59.135Z,16.20
2022-08-20T09:27:31.538Z,18.00
2022-08-20T09:30:02.408Z,17.50
2022-08-20T09:32:33.763Z,17.00
2022-08-20T09:35:09.225Z,16.90
2022-08-20T09:37:41.209Z,19.40
2022-08-20T09:40:14.577Z,14.90
2022-08-20T09:42:53.470Z,16.50
2022-08-20T09:45:24.803Z,14.70
2022-08-20T09:47:56.903Z,16.00
2022-08-20T09:50:30.746Z,17.30
2022-08-20T09:53:04.149Z,16.30
2022-08-20T09:55:38.597Z,17.30
2022-08-20T09:58:18.007Z,26.20
2022-08-20T10:00:50.072Z,22.20
2022-08-20T10:03:21.074Z,12.90
2022-08-20T10:05:52.081Z,18.10
2022-08-20T10:08:22.890Z,20.90
2022-08-20T10:10:54.034Z,22.40
2022-08-20T10:13:25.098Z,19.20
2022-08-20T10:15:56.057Z,17.60
2022-08-20T10:18:27.312Z,16.60
2022-08-20T10:20:58.231Z,16.20
2022-08-20T10:23:29.457Z,16.70
2022-08-20T10:26:00.475Z,12.50
2022-08-20T10:28:31.536Z,12.70
2022-08-20T10:31:02.514Z,15.60
2022-08-20T10:33:33.668Z,17.50
2022-08-20T10:36:10.901Z,11.10
2022-08-20T10:38:42.784Z,12.80
2022-08-20T10:41:13.653Z,14.80
2022-08-20T10:43:44.735Z,14.60
2022-08-20T10:46:16.132Z,15.30
2022-08-20T10:48:47.348Z,16.10
2022-08-20T10:51:18.203Z,16.30
2022-08-20T10:53:50.479Z,19.00
2022-08-20T10:56:21.494Z,14.80
2022-08-20T10:58:52.802Z,15.50
2022-08-20T11:01:31.299Z,16.10
2022-08-20T11:04:04.907Z,15.00
2022-08-20T11:06:36.130Z,15.70
2022-08-20T11:09:06.892Z,17.10
2022-08-20T11:11:40.762Z,16.50
2022-08-20T11:14:11.840Z,16.80
2022-08-20T11:16:42.829Z,24.00
2022-08-20T11:19:13.605Z,23.40
2022-08-20T11:21:44.576Z,21.70
2022-08-20T11:24:15.790Z,16.90
2022-08-20T11:26:49.354Z,16.10
2022-08-20T11:29:20.662Z,16.30
2022-08-20T11:31:51.476Z,14.40
2022-08-20T11:34:22.325Z,15.50
2022-08-20T11:36:54.133Z,15.70
2022-08-20T11:39:25.417Z,15.10
2022-08-20T11:41:56.841Z,13.60
2022-08-20T11:44:28.340Z,14.50
2022-08-20T11:47:03.601Z,13.50
2022-08-20T11:49:35.982Z,16.10
2022-08-20T11:52:08.254Z,14.40
2022-08-20T11:54:40.703Z,15.10
2022-08-20T11:57:11.991Z,13.60
2022-08-20T11:59:42.973Z,13.30
2022-08-20T12:02:14.099Z,15.40
2022-08-20T12:04:45.242Z,14.00
2022-08-20T12:07:19.984Z,15.70
2022-08-20T12:09:52.116Z,14.00
2022-08-20T12:12:24.578Z,12.50
2022-08-20T12:14:56.602Z,12.80
2022-08-20T12:17:30.165Z,14.80
2022-08-20T12:20:03.655Z,13.10
2022-08-20T12:22:34.589Z,12.70
2022-08-20T12:25:08.074Z,13.80
2022-08-20T12:27:39.788Z,12.70
2022-08-20T12:30:13.915Z,12.00
2022-08-20T12:32:44.953Z,13.40
2022-08-20T12:35:18.071Z,10.40
2022-08-20T12:37:49.725Z,13.20
2022-08-20T12:40:30.763Z,11.10
2022-08-20T12:43:05.031Z,10.40
2022-08-20T12:45:37.317Z,9.10
2022-08-20T12:48:11.500Z,9.60
2022-08-20T12:50:45.744Z,8.70
2022-08-20T12:53:16.872Z,10.20
2022-08-20T12:55:48.045Z,11.50
2022-08-20T12:58:19.309Z,6.50
2022-08-20T13:00:51.398Z,5.00
2022-08-20T13:03:23.316Z,5.30
2022-08-20T13:05:54.338Z,5.40
2022-08-20T13:08:25.407Z,4.20
2022-08-20T13:10:56.446Z,4.40
2022-08-20T13:13:27.463Z,6.00
2022-08-20T13:15:58.505Z,5.50
2022-08-20T13:18:29.404Z,5.00
2022-08-20T13:21:00.246Z,5.60
2022-08-20T13:23:31.290Z,5.40
2022-08-20T13:26:02.385Z,5.50
2022-08-20T13:28:33.425Z,3.50
2022-08-20T13:31:04.631Z,7.30
2022-08-20T13:33:36.261Z,5.00
2022-08-20T13:36:08.054Z,5.60
2022-08-20T13:38:39.030Z,6.30
2022-08-20T13:41:10.172Z,6.20
2022-08-20T13:43:41.098Z,4.30
2022-08-20T13:46:12.027Z,4.50
2022-08-20T13:48:43.062Z,4.90
2022-08-20T13:51:14.045Z,4.30
2022-08-20T13:53:50.153Z,4.60
2022-08-20T13:56:22.005Z,5.00
2022-08-20T13:58:53.182Z,4.50
2022-08-20T14:01:24.068Z,5.30
2022-08-20T14:03:55.181Z,4.50
2022-08-20T14:06:27.242Z,3.60
2022-08-20T14:08:58.654Z,3.20
2022-08-20T14:11:29.630Z,3.90
2022-08-20T14:14:00.863Z,3.30
2022-08-20T14:16:35.079Z,2.40
2022-08-20T14:19:07.092Z,3.00
2022-08-20T14:21:38.578Z,2.90
2022-08-20T14:24:10.448Z,2.20
2022-08-20T14:26:41.621Z,2.20
2022-08-20T14:29:12.708Z,3.10
2022-08-20T14:31:43.735Z,2.30
2022-08-20T14:34:14.698Z,2.90
2022-08-20T14:36:45.564Z,3.00
2022-08-20T14:39:20.503Z,3.10
2022-08-20T14:41:52.039Z,4.60
2022-08-20T14:44:22.959Z,2.30
2022-08-20T14:46:53.972Z,2.20
2022-08-20T14:49:24.991Z,2.40
2022-08-20T14:51:56.359Z,4.70
2022-08-20T14:54:27.482Z,3.30
2022-08-20T14:57:02.106Z,2.60
2022-08-20T14:59:33.717Z,2.70
2022-08-20T15:02:04.897Z,2.70
2022-08-20T15:04:35.982Z,2.60
2022-08-20T15:07:13.053Z,2.90
2022-08-20T15:09:44.456Z,1.50
2022-08-20T15:12:15.327Z,2.30
2022-08-20T15:14:48.041Z,1.90
2022-08-20T15:17:23.349Z,1.90
2022-08-20T15:19:55.123Z,2.30
2022-08-20T15:22:26.456Z,1.60
2022-08-20T15:24:57.871Z,1.50
2022-08-20T15:27:29.007Z,1.40
2022-08-20T15:29:59.882Z,2.70
2022-08-20T15:32:30.860Z,1.90
2022-08-20T15:35:01.767Z,2.90
2022-08-20T15:37:32.938Z,1.90
2022-08-20T15:40:07.793Z,3.60
2022-08-20T15:42:39.228Z,2.30
2022-08-20T15:45:12.961Z,1.80
2022-08-20T15:47:55.804Z,2.40
2022-08-20T15:50:39.657Z,2.10
2022-08-20T15:53:17.443Z,1.70
2022-08-20T15:55:57.144Z,1.90
2022-08-20T15:58:38.159Z,2.20
2022-08-20T16:01:25.195Z,2.30
2022-08-20T16:04:33.193Z,2.40
2022-08-20T16:07:14.392Z,2.10
2022-08-20T16:09:59.868Z,2.90
2022-08-20T16:12:35.747Z,2.50
2022-08-20T16:15:11.288Z,2.60
2022-08-20T16:17:47.126Z,2.80
2022-08-20T16:20:24.724Z,2.80
2022-08-20T16:23:18.854Z,2.30
2022-08-20T16:26:05.643Z,4.20
2022-08-20T16:29:02.905Z,3.50
2022-08-20T16:31:42.472Z,2.90
2022-08-20T16:34:33.252Z,2.80
2022-08-20T16:37:15.757Z,2.20
2022-08-20T16:39:55.447Z,2.80
2022-08-20T16:42:30.815Z,1.90
2022-08-20T16:45:03.899Z,1.40
2022-08-20T16:47:40.783Z,1.30
2022-08-20T16:50:17.873Z,1.30
2022-08-20T16:52:51.774Z,1.30
2022-08-20T16:55:24.540Z,1.40
2022-08-20T16:57:56.648Z,1.30
2022-08-20T17:00:35.164Z,1.40
2022-08-20T17:03:08.536Z,1.30
2022-08-20T17:05:49.749Z,1.60
2022-08-20T17:08:25.933Z,2.00
2022-08-20T17:11:02.376Z,1.00
2022-08-20T17:13:37.264Z,1.10
2022-08-20T17:16:23.416Z,0.80
2022-08-20T17:18:55.545Z,0.90
2022-08-20T17:21:35.571Z,0.80
2022-08-20T17:24:16.844Z,0.90
2022-08-20T17:26:50.886Z,0.70
2022-08-20T17:29:29.643Z,1.20
2022-08-20T17:32:02.491Z,0.70
2022-08-20T17:34:44.495Z,0.40
2022-08-20T17:37:23.864Z,7.90
2022-08-20T17:40:06.122Z,0.50
2022-08-20T17:42:49.213Z,0.40
2022-08-20T17:45:25.686Z,16.00
2022-08-20T17:48:00.042Z,0.70
2022-08-20T17:50:34.471Z,0.40
2022-08-20T17:53:14.248Z,0.40
2022-08-20T17:55:46.162Z,0.30
2022-08-20T17:58:18.819Z,0.40
2022-08-20T18:00:50.211Z,0.80
2022-08-20T18:03:26.888Z,0.30
2022-08-20T18:08:36.837Z,0.20
2022-08-20T18:11:27.635Z,0.30
2022-08-20T18:14:17.982Z,0.40
2022-08-20T18:17:01.571Z,0.30
2022-08-20T18:19:50.923Z,0.50
2022-08-20T18:22:24.721Z,1.40
2022-08-20T18:25:04.994Z,0.60
2022-08-20T18:27:43.569Z,1.00
2022-08-20T18:30:20.123Z,1.00
2022-08-20T18:35:24.033Z,3.20
2022-08-20T18:37:55.290Z,2.60
2022-08-20T18:40:33.439Z,2.60
2022-08-20T18:43:14.966Z,2.60
2022-08-20T18:45:45.912Z,1.60
2022-08-20T18:48:25.062Z,2.30
2022-08-20T18:50:58.961Z,1.20
2022-08-20T18:53:34.454Z,3.00
2022-08-20T18:56:08.761Z,3.40
2022-08-20T18:58:55.580Z,1.90
2022-08-20T19:01:26.620Z,0.70
2022-08-20T19:03:59.212Z,0.70
2022-08-20T19:06:42.476Z,1.30
2022-08-20T19:09:20.417Z,1.70
2022-08-20T19:12:06.131Z,1.70
2022-08-20T19:14:55.375Z,0.80
2022-08-20T19:17:38.773Z,0.90
2022-08-20T19:20:16.248Z,4.20
2022-08-20T19:22:48.447Z,3.50
2022-08-20T19:25:29.831Z,1.30
2022-08-20T19:28:03.857Z,0.80
2022-08-20T19:30:40.605Z,2.40
2022-08-20T19:35:42.075Z,1.50
2022-08-20T19:38:17.968Z,1.30
2022-08-20T19:40:49.218Z,1.60
2022-08-20T19:43:24.576Z,3.50
2022-08-20T19:45:58.143Z,1.50
2022-08-20T19:48:46.888Z,1.70
2022-08-20T19:51:33.721Z,1.50
2022-08-20T19:54:04.936Z,2.50
2022-08-20T19:56:42.701Z,1.00
2022-08-20T19:59:22.382Z,0.60
2022-08-20T20:02:00.391Z,3.60
2022-08-20T20:04:41.154Z,1.80
2022-08-20T20:07:28.287Z,1.00
2022-08-20T20:10:00.352Z,0.60
2022-08-20T20:12:33.358Z,2.40
2022-08-20T20:15:06.936Z,0.80
2022-08-20T20:17:39.175Z,0.40
2022-08-20T20:20:31.063Z,1.10
2022-08-20T20:23:06.901Z,0.80
2022-08-20T20:25:45.126Z,0.60
2022-08-20T20:28:21.535Z,0.90
2022-08-20T20:30:52.859Z,1.10
2022-08-20T20:33:31.036Z,0.70
2022-08-20T20:36:08.750Z,0.90
2022-08-20T20:38:56.375Z,0.90
2022-08-20T20:41:30.507Z,0.70
2022-08-20T20:44:05.124Z,1.40
2022-08-20T20:46:40.548Z,0.70
2022-08-20T20:49:22.742Z,0.80
2022-08-20T20:52:01.259Z,0.70
2022-08-20T20:54:42.126Z,0.70
2022-08-20T20:57:38.056Z,0.80
2022-08-20T21:00:14.980Z,0.70
2022-08-20T21:02:46.997Z,2.10
2022-08-20T21:05:20.855Z,2.50
2022-08-20T21:07:56.115Z,1.40
2022-08-20T21:10:34.848Z,1.70
2022-08-20T21:13:08.031Z,1.00
2022-08-20T21:15:40.199Z,1.30
2022-08-20T21:18:12.098Z,1.10
2022-08-20T21:20:43.271Z,1.30
2022-08-20T21:23:14.574Z,1.70
2022-08-20T21:25:45.391Z,1.60
2022-08-20T21:28:16.467Z,1.00
2022-08-20T21:30:47.507Z,1.30
2022-08-20T21:33:18.470Z,2.30
2022-08-20T21:35:49.746Z,1.60
2022-08-20T21:38:20.761Z,2.10
2022-08-20T21:40:51.900Z,1.10
2022-08-20T21:43:22.699Z,1.20
2022-08-20T21:45:54.462Z,4.00
2022-08-20T21:48:26.449Z,1.10
2022-08-20T21:50:57.496Z,1.50
2022-08-20T21:53:28.228Z,1.40
2022-08-20T21:56:00.506Z,1.40
2022-08-20T21:58:31.459Z,1.70
2022-08-20T22:01:05.305Z,1.10
2022-08-20T22:03:41.070Z,0.90
2022-08-20T22:06:14.498Z,1.20
2022-08-20T22:08:45.605Z,1.30
2022-08-20T22:11:17.502Z,2.00
2022-08-20T22:13:48.831Z,1.20
2022-08-20T22:16:21.655Z,1.00
2022-08-20T22:18:53.319Z,1.00
2022-08-20T22:21:27.154Z,1.40
2022-08-20T22:24:00.728Z,1.00
2022-08-20T22:26:32.957Z,1.40
2022-08-20T22:29:04.503Z,1.90
2022-08-20T22:31:38.468Z,0.90
2022-08-20T22:34:09.879Z,1.00
2022-08-20T22:36:41.417Z,1.10
2022-08-20T22:39:12.447Z,1.20
2022-08-20T22:41:44.024Z,1.30
2022-08-20T22:44:15.188Z,1.50
2022-08-20T22:46:49.605Z,0.50
2022-08-20T22:51:54.361Z,1.10
2022-08-20T22:54:28.356Z,0.70
2022-08-20T22:56:59.509Z,0.50
2022-08-20T22:59:31.126Z,0.40
2022-08-20T23:02:08.333Z,0.40
2022-08-20T23:04:39.629Z,0.50
2022-08-20T23:07:13.611Z,0.70
2022-08-20T23:09:45.990Z,0.40
2022-08-20T23:12:17.120Z,0.40
2022-08-20T23:14:48.336Z,0.30
2022-08-20T23:17:20.071Z,0.80
2022-08-20T23:19:51.994Z,0.30
2022-08-20T23:22:23.210Z,0.50
2022-08-20T23:24:57.351Z,0.40
2022-08-20T23:27:32.566Z,0.30
2022-08-20T23:30:03.424Z,0.80
2022-08-20T23:32:34.479Z,2.20
2022-08-20T23:35:05.781Z,0.20
2022-08-20T23:37:41.471Z,0.30
2022-08-20T23:40:14.180Z,0.30
2022-08-20T23:42:45.582Z,0.40
2022-08-20T23:45:17.592Z,0.40
2022-08-20T23:47:50.107Z,0.50
2022-08-20T23:50:24.166Z,0.30
2022-08-20T23:52:56.262Z,0.50
2022-08-20T23:55:28.156Z,0.40
2022-08-20T23:57:59.405Z,0.30
